createdAt,value
2022-10-18T00:01:39.686Z,11.87
2022-10-18T00:04:07.570Z,11.76
2022-10-18T00:06:37.682Z,11.84
2022-10-18T00:09:08.294Z,11.84
2022-10-18T00:11:36.271Z,11.33
2022-10-18T00:14:04.260Z,11.44
2022-10-18T00:16:32.256Z,11.48
2022-10-18T00:19:00.266Z,11.59
2022-10-18T00:21:28.267Z,11.60
2022-10-18T00:23:56.140Z,11.72
2022-10-18T00:26:27.885Z,11.89
2022-10-18T00:28:58.232Z,11.43
2022-10-18T00:31:33.559Z,11.96
2022-10-18T00:34:07.445Z,11.96
2022-10-18T00:36:35.454Z,11.98
2022-10-18T00:39:06.393Z,12.02
2022-10-18T00:41:38.176Z,12.01
2022-10-18T00:44:11.678Z,11.76
2022-10-18T00:46:48.917Z,11.86
2022-10-18T00:49:39.574Z,11.94
2022-10-18T00:52:14.446Z,11.85
2022-10-18T00:54:46.384Z,11.93
2022-10-18T00:57:15.371Z,11.92
2022-10-18T00:59:44.616Z,11.88
2022-10-18T01:02:15.203Z,11.83
2022-10-18T01:04:43.485Z,11.76
2022-10-18T01:07:25.805Z,11.71
2022-10-18T01:10:14.272Z,11.47
2022-10-18T01:13:07.183Z,11.63
2022-10-18T01:18:31.354Z,11.64
2022-10-18T01:21:09.113Z,11.64
2022-10-18T01:24:38.190Z,11.60
2022-10-18T01:27:42.863Z,11.59
2022-10-18T01:30:29.451Z,11.51
2022-10-18T01:33:24.447Z,11.41
2022-10-18T01:36:22.910Z,11.45
2022-10-18T01:38:57.123Z,11.33
2022-10-18T01:41:27.219Z,11.31
2022-10-18T01:44:01.138Z,11.14
2022-10-18T01:46:30.060Z,11.40
2022-10-18T01:48:58.843Z,11.09
2022-10-18T01:51:29.341Z,11.22
2022-10-18T01:53:57.995Z,11.24
2022-10-18T01:56:53.434Z,11.18
2022-10-18T01:59:50.312Z,11.24
2022-10-18T02:02:47.246Z,11.21
2022-10-18T02:05:40.465Z,11.16
2022-10-18T02:08:35.827Z,11.08
2022-10-18T02:11:16.432Z,10.94
2022-10-18T02:14:04.485Z,10.79
2022-10-18T02:16:54.840Z,11.09
2022-10-18T02:19:39.204Z,11.06
2022-10-18T02:22:10.825Z,11.02
2022-10-18T02:24:44.843Z,10.93
2022-10-18T02:27:13.652Z,10.69
2022-10-18T02:29:43.277Z,10.66
2022-10-18T02:32:55.922Z,10.63
2022-10-18T02:35:35.582Z,10.81
2022-10-18T02:38:07.435Z,10.90
2022-10-18T02:40:35.691Z,10.92
2022-10-18T02:43:06.754Z,10.73
2022-10-18T02:45:35.543Z,10.93
2022-10-18T02:48:03.654Z,10.77
2022-10-18T02:50:31.475Z,10.82
2022-10-18T02:52:59.639Z,11.03
2022-10-18T02:58:00.474Z,11.04
2022-10-18T03:00:28.421Z,10.94
2022-10-18T03:02:56.272Z,11.05
2022-10-18T03:05:24.257Z,11.03
2022-10-18T03:07:52.184Z,10.55
2022-10-18T03:10:20.033Z,10.96
2022-10-18T03:12:48.239Z,10.69
2022-10-18T03:15:16.272Z,10.83
2022-10-18T03:17:44.085Z,10.83
2022-10-18T03:20:12.249Z,10.79
2022-10-18T03:22:40.241Z,10.79
2022-10-18T03:25:08.571Z,10.70
2022-10-18T03:27:36.668Z,10.77
2022-10-18T03:30:05.872Z,10.73
2022-10-18T03:32:33.803Z,10.69
2022-10-18T03:35:02.217Z,10.78
2022-10-18T03:37:31.105Z,10.42
2022-10-18T03:39:58.965Z,10.56
2022-10-18T03:42:27.322Z,10.47
2022-10-18T03:44:55.388Z,9.45
2022-10-18T03:47:23.227Z,10.21
2022-10-18T03:49:54.568Z,10.21
2022-10-18T03:52:25.300Z,10.17
2022-10-18T03:54:53.322Z,9.92
2022-10-18T03:57:21.280Z,10.16
2022-10-18T03:59:49.435Z,10.09
2022-10-18T04:02:17.391Z,9.69
2022-10-18T04:04:45.698Z,9.87
2022-10-18T04:07:14.108Z,9.70
2022-10-18T04:09:42.143Z,9.56
2022-10-18T04:12:10.162Z,9.55
2022-10-18T04:14:38.313Z,9.49
2022-10-18T04:17:06.285Z,9.59
2022-10-18T04:19:34.177Z,9.57
2022-10-18T04:22:02.252Z,9.51
2022-10-18T04:24:30.198Z,9.88
2022-10-18T04:26:58.125Z,9.94
2022-10-18T04:29:26.108Z,10.16
2022-10-18T04:31:54.069Z,10.10
2022-10-18T04:34:22.187Z,10.19
2022-10-18T04:36:50.268Z,10.14
2022-10-18T04:39:18.460Z,10.22
2022-10-18T04:41:46.326Z,9.81
2022-10-18T04:44:14.931Z,10.29
2022-10-18T04:46:42.920Z,10.19
2022-10-18T04:49:10.847Z,10.30
2022-10-18T04:51:38.807Z,10.39
2022-10-18T04:54:06.887Z,10.43
2022-10-18T04:56:34.852Z,10.30
2022-10-18T04:59:02.906Z,10.21
2022-10-18T05:01:30.886Z,9.95
2022-10-18T05:03:58.892Z,10.23
2022-10-18T05:06:26.961Z,10.11
2022-10-18T05:08:54.931Z,9.90
2022-10-18T05:11:22.959Z,10.16
2022-10-18T05:13:51.144Z,9.94
2022-10-18T05:16:19.349Z,10.19
2022-10-18T05:18:47.243Z,10.16
2022-10-18T05:21:18.354Z,10.19
2022-10-18T05:23:46.591Z,10.25
2022-10-18T05:26:17.888Z,10.35
2022-10-18T05:28:46.236Z,10.65
2022-10-18T05:31:14.406Z,11.08
2022-10-18T05:33:42.679Z,11.32
2022-10-18T05:36:11.557Z,11.56
2022-10-18T05:38:43.401Z,11.71
2022-10-18T05:41:13.864Z,11.87
2022-10-18T05:43:42.129Z,11.18
2022-10-18T05:46:15.172Z,12.14
2022-10-18T05:48:49.256Z,12.21
2022-10-18T05:51:18.706Z,12.12
2022-10-18T05:53:46.739Z,12.14
2022-10-18T05:56:15.252Z,12.42
2022-10-18T05:58:43.902Z,12.43
2022-10-18T06:01:11.841Z,12.70
2022-10-18T06:03:39.732Z,12.88
2022-10-18T06:06:10.949Z,12.79
2022-10-18T06:08:41.103Z,13.14
2022-10-18T06:11:18.905Z,13.14
2022-10-18T06:13:49.456Z,12.96
2022-10-18T06:16:21.840Z,13.32
2022-10-18T06:18:52.633Z,13.41
2022-10-18T06:21:22.611Z,13.43
2022-10-18T06:23:52.767Z,13.37
2022-10-18T06:26:21.370Z,13.90
2022-10-18T06:28:49.897Z,13.91
2022-10-18T06:31:18.573Z,13.98
2022-10-18T06:33:46.514Z,14.19
2022-10-18T06:36:18.623Z,13.77
2022-10-18T06:38:46.844Z,14.14
2022-10-18T06:41:15.351Z,14.15
2022-10-18T06:43:44.100Z,14.07
2022-10-18T06:46:12.159Z,14.02
2022-10-18T06:48:40.174Z,13.96
2022-10-18T06:51:09.393Z,13.94
2022-10-18T06:53:44.255Z,13.94
2022-10-18T06:56:21.547Z,14.03
2022-10-18T06:58:49.705Z,14.10
2022-10-18T07:01:18.888Z,14.17
2022-10-18T07:03:49.466Z,14.23
2022-10-18T07:06:19.241Z,13.95
2022-10-18T07:08:49.301Z,14.01
2022-10-18T07:11:26.481Z,14.03
2022-10-18T07:14:00.999Z,13.98
2022-10-18T07:16:29.193Z,14.41
2022-10-18T07:18:57.714Z,14.55
2022-10-18T07:21:26.499Z,14.70
2022-10-18T07:23:54.614Z,14.71
2022-10-18T07:26:31.976Z,14.80
2022-10-18T07:29:10.507Z,14.78
2022-10-18T07:31:39.271Z,14.87
2022-10-18T07:34:10.653Z,15.19
2022-10-18T07:36:38.769Z,15.09
2022-10-18T07:39:07.075Z,15.47
2022-10-18T07:41:35.551Z,15.28
2022-10-18T07:44:04.872Z,15.47
2022-10-18T07:46:33.517Z,15.50
2022-10-18T07:49:01.419Z,15.30
2022-10-18T07:51:31.267Z,15.64
2022-10-18T07:54:02.922Z,15.63
2022-10-18T07:56:30.786Z,15.59
2022-10-18T07:58:58.993Z,15.46
2022-10-18T08:01:27.461Z,15.93
2022-10-18T08:03:55.456Z,16.11
2022-10-18T08:06:24.841Z,16.23
2022-10-18T08:08:53.130Z,16.27
2022-10-18T08:11:24.277Z,16.48
2022-10-18T08:13:53.708Z,16.41
2022-10-18T08:16:27.938Z,16.49
2022-10-18T08:18:58.865Z,16.54
2022-10-18T08:21:27.387Z,16.55
2022-10-18T08:23:55.426Z,16.63
2022-10-18T08:26:24.115Z,16.59
2022-10-18T08:29:03.548Z,16.67
2022-10-18T08:31:38.052Z,16.66
2022-10-18T08:34:05.922Z,16.74
2022-10-18T08:36:34.125Z,16.85
2022-10-18T08:39:03.523Z,16.77
2022-10-18T08:41:37.281Z,17.13
2022-10-18T08:44:18.409Z,17.26
2022-10-18T08:47:10.978Z,17.26
2022-10-18T08:49:56.620Z,17.42
2022-10-18T08:52:53.859Z,17.49
2022-10-18T08:58:55.392Z,17.68
2022-10-18T09:01:38.689Z,17.77
2022-10-18T09:04:15.801Z,17.81
2022-10-18T09:06:58.083Z,18.01
2022-10-18T09:09:39.157Z,18.25
2022-10-18T09:12:44.700Z,18.28
2022-10-18T09:15:30.668Z,18.45
2022-10-18T09:18:32.529Z,18.49
2022-10-18T09:21:19.836Z,18.83
2022-10-18T09:24:17.180Z,18.94
2022-10-18T09:26:55.436Z,19.23
2022-10-18T09:30:05.178Z,19.29
2022-10-18T09:32:56.127Z,19.47
2022-10-18T09:35:48.964Z,19.87
2022-10-18T09:38:23.397Z,19.64
2022-10-18T09:41:02.967Z,19.86
2022-10-18T09:44:03.341Z,19.95
2022-10-18T09:46:38.996Z,19.84
2022-10-18T09:49:28.711Z,19.84
2022-10-18T09:52:02.422Z,19.86
2022-10-18T09:54:46.963Z,19.89
2022-10-18T09:57:23.992Z,20.19
2022-10-18T09:59:51.947Z,20.10
2022-10-18T10:02:23.585Z,20.42
2022-10-18T10:04:54.504Z,20.70
2022-10-18T10:07:32.481Z,20.50
2022-10-18T10:10:13.800Z,20.44
2022-10-18T10:12:42.712Z,20.59
2022-10-18T10:15:31.272Z,20.40
2022-10-18T10:18:20.598Z,20.28
2022-10-18T10:20:56.424Z,20.58
2022-10-18T10:23:32.165Z,20.69
2022-10-18T10:26:44.554Z,20.69
2022-10-18T10:29:46.667Z,20.93
2022-10-18T10:32:18.467Z,21.13
2022-10-18T10:34:46.749Z,20.85
2022-10-18T10:37:23.888Z,21.23
2022-10-18T10:40:33.468Z,21.12
2022-10-18T10:43:18.138Z,21.10
2022-10-18T10:46:15.172Z,20.96
2022-10-18T10:49:15.470Z,21.13
2022-10-18T10:51:45.207Z,21.13
2022-10-18T10:54:21.784Z,21.42
2022-10-18T10:57:12.758Z,21.17
2022-10-18T10:59:55.420Z,21.13
2022-10-18T11:02:27.335Z,20.95
2022-10-18T11:04:57.411Z,21.19
2022-10-18T11:07:46.588Z,21.32
2022-10-18T11:10:20.154Z,21.47
2022-10-18T11:13:05.494Z,21.31
2022-10-18T11:15:46.541Z,21.34
2022-10-18T11:18:22.385Z,21.20
2022-10-18T11:20:56.023Z,21.19
2022-10-18T11:23:33.521Z,20.83
2022-10-18T11:26:11.782Z,21.01
2022-10-18T11:28:51.625Z,21.38
2022-10-18T11:31:35.162Z,21.49
2022-10-18T11:34:23.312Z,21.43
2022-10-18T11:37:28.574Z,21.42
2022-10-18T11:40:14.438Z,21.41
2022-10-18T11:43:07.555Z,21.45
2022-10-18T11:45:50.619Z,21.61
2022-10-18T11:48:37.196Z,21.70
2022-10-18T11:51:29.733Z,21.55
2022-10-18T11:54:55.734Z,21.84
2022-10-18T11:58:02.514Z,21.75
2022-10-18T12:01:07.983Z,21.90
2022-10-18T12:04:15.310Z,22.01
2022-10-18T12:06:47.509Z,21.82
2022-10-18T12:09:49.796Z,22.11
2022-10-18T12:12:27.596Z,22.09
2022-10-18T12:15:01.116Z,22.14
2022-10-18T12:17:50.031Z,21.91
2022-10-18T12:20:30.983Z,22.01
2022-10-18T12:23:39.540Z,22.49
2022-10-18T12:26:10.848Z,22.80
2022-10-18T12:28:49.365Z,22.63
2022-10-18T12:31:45.773Z,22.63
2022-10-18T12:34:22.781Z,22.67
2022-10-18T12:37:42.535Z,22.69
2022-10-18T12:40:29.805Z,22.22
2022-10-18T12:42:57.971Z,22.04
2022-10-18T12:45:46.916Z,21.86
2022-10-18T12:48:39.180Z,22.07
2022-10-18T12:51:22.273Z,22.04
2022-10-18T12:54:17.257Z,22.17
2022-10-18T12:56:47.217Z,22.07
2022-10-18T12:59:16.000Z,22.18
2022-10-18T13:01:53.371Z,22.10
2022-10-18T13:04:40.637Z,21.54
2022-10-18T13:07:30.866Z,21.79
2022-10-18T13:10:12.450Z,21.66
2022-10-18T13:13:39.063Z,21.27
2022-10-18T13:16:23.203Z,21.34
2022-10-18T13:19:15.176Z,21.43
2022-10-18T13:22:24.805Z,21.21
2022-10-18T13:25:21.040Z,21.28
2022-10-18T13:28:26.830Z,21.29
2022-10-18T13:31:28.115Z,21.05
2022-10-18T13:33:56.264Z,21.22
2022-10-18T13:36:29.862Z,21.04
2022-10-18T13:39:02.317Z,21.19
2022-10-18T13:42:00.408Z,21.09
2022-10-18T13:44:30.688Z,21.07
2022-10-18T13:46:58.510Z,21.13
2022-10-18T13:49:59.223Z,21.12
2022-10-18T13:53:19.315Z,20.83
2022-10-18T13:56:40.969Z,20.79
2022-10-18T14:02:59.680Z,20.62
2022-10-18T14:06:16.229Z,20.59
2022-10-18T14:08:57.040Z,20.58
2022-10-18T14:11:46.276Z,20.61
2022-10-18T14:14:20.738Z,20.73
2022-10-18T14:17:07.258Z,20.65
2022-10-18T14:19:49.695Z,20.57
2022-10-18T14:22:24.988Z,20.43
2022-10-18T14:24:57.854Z,20.16
2022-10-18T14:27:29.328Z,20.12
2022-10-18T14:30:18.898Z,20.12
2022-10-18T14:32:50.625Z,20.24
2022-10-18T14:35:32.713Z,20.10
2022-10-18T14:38:02.275Z,19.84
2022-10-18T14:40:39.129Z,19.89
2022-10-18T14:43:13.944Z,19.68
2022-10-18T14:45:43.084Z,19.68
2022-10-18T14:48:24.901Z,19.34
2022-10-18T14:51:01.157Z,19.45
2022-10-18T14:53:37.996Z,19.27
2022-10-18T14:56:08.483Z,18.93
2022-10-18T14:58:38.340Z,18.95
2022-10-18T15:01:06.709Z,18.78
2022-10-18T15:03:36.763Z,18.64
2022-10-18T15:06:07.779Z,18.50
2022-10-18T15:08:43.917Z,18.34
2022-10-18T15:11:15.670Z,18.17
2022-10-18T15:14:06.904Z,17.77
2022-10-18T15:16:38.605Z,17.75
2022-10-18T15:19:37.149Z,17.53
2022-10-18T15:22:38.237Z,17.34
2022-10-18T15:25:06.518Z,17.19
2022-10-18T15:27:38.397Z,16.73
2022-10-18T15:30:13.961Z,16.94
2022-10-18T15:33:00.153Z,16.71
2022-10-18T15:35:34.865Z,16.63
2022-10-18T15:38:27.486Z,16.64
2022-10-18T15:40:55.928Z,16.56
2022-10-18T15:43:23.691Z,16.45
2022-10-18T15:46:00.286Z,16.40
2022-10-18T15:48:36.350Z,16.20
2022-10-18T15:51:45.991Z,16.21
2022-10-18T15:54:29.420Z,16.03
2022-10-18T15:56:57.864Z,15.90
2022-10-18T15:59:32.165Z,15.82
2022-10-18T16:02:00.495Z,15.81
2022-10-18T16:04:31.891Z,15.85
2022-10-18T16:07:00.692Z,15.70
2022-10-18T16:09:29.661Z,15.73
2022-10-18T16:11:58.647Z,15.73
2022-10-18T16:14:27.695Z,15.44
2022-10-18T16:17:02.086Z,15.64
2022-10-18T16:19:30.784Z,15.69
2022-10-18T16:22:03.631Z,15.63
2022-10-18T16:24:34.502Z,15.72
2022-10-18T16:27:02.559Z,15.63
2022-10-18T16:29:32.719Z,15.32
2022-10-18T16:32:01.739Z,15.52
2022-10-18T16:34:32.270Z,15.48
2022-10-18T16:37:00.380Z,15.17
2022-10-18T16:39:30.263Z,15.13
2022-10-18T16:41:58.357Z,15.38
2022-10-18T16:44:26.648Z,15.39
2022-10-18T16:46:56.302Z,15.41
2022-10-18T16:49:26.973Z,15.37
2022-10-18T16:51:55.771Z,15.38
2022-10-18T16:54:24.041Z,15.37
2022-10-18T16:56:52.449Z,15.39
2022-10-18T16:59:32.000Z,15.51
2022-10-18T17:02:05.737Z,15.43
2022-10-18T17:04:34.773Z,15.42
2022-10-18T17:07:05.594Z,15.07
2022-10-18T17:09:37.043Z,15.33
2022-10-18T17:12:05.768Z,15.26
2022-10-18T17:14:36.554Z,14.99
2022-10-18T17:17:04.844Z,15.25
2022-10-18T17:19:32.871Z,14.90
2022-10-18T17:22:02.713Z,15.17
2022-10-18T17:24:31.131Z,15.31
2022-10-18T17:26:59.199Z,15.33
2022-10-18T17:29:27.382Z,15.27
2022-10-18T17:31:57.204Z,15.00
2022-10-18T17:34:25.311Z,15.19
2022-10-18T17:36:53.313Z,15.14
2022-10-18T17:39:21.807Z,14.64
2022-10-18T17:41:50.778Z,15.08
2022-10-18T17:44:18.925Z,15.04
2022-10-18T17:46:47.404Z,14.96
2022-10-18T17:49:17.102Z,14.77
2022-10-18T17:51:46.635Z,14.87
2022-10-18T17:54:15.315Z,14.78
2022-10-18T17:56:43.516Z,14.55
2022-10-18T17:59:11.747Z,14.83
2022-10-18T18:01:40.122Z,14.93
2022-10-18T18:04:08.171Z,14.74
2022-10-18T18:06:39.255Z,14.96
2022-10-18T18:09:14.020Z,15.02
2022-10-18T18:11:44.880Z,14.92
2022-10-18T18:14:13.786Z,15.09
2022-10-18T18:16:44.854Z,15.04
2022-10-18T18:19:14.784Z,15.03
2022-10-18T18:21:43.517Z,15.01
2022-10-18T18:24:14.486Z,14.89
2022-10-18T18:26:43.622Z,14.75
2022-10-18T18:29:13.865Z,14.90
2022-10-18T18:31:43.934Z,14.65
2022-10-18T18:34:12.706Z,14.66
2022-10-18T18:36:41.414Z,14.86
2022-10-18T18:39:18.961Z,14.68
2022-10-18T18:41:51.373Z,14.92
2022-10-18T18:44:21.901Z,14.85
2022-10-18T18:46:51.841Z,14.58
2022-10-18T18:49:20.050Z,15.11
2022-10-18T18:51:48.589Z,15.23
2022-10-18T18:54:17.750Z,15.10
2022-10-18T18:56:46.019Z,15.32
2022-10-18T18:59:15.988Z,15.41
2022-10-18T19:01:47.095Z,15.43
2022-10-18T19:04:16.115Z,15.55
2022-10-18T19:06:46.932Z,15.57
2022-10-18T19:09:22.940Z,15.58
2022-10-18T19:11:54.792Z,15.49
2022-10-18T19:14:25.575Z,15.53
2022-10-18T19:17:02.137Z,15.51
2022-10-18T19:19:31.569Z,15.54
2022-10-18T19:22:05.072Z,15.54
2022-10-18T19:24:33.920Z,15.57
2022-10-18T19:27:14.230Z,15.51
2022-10-18T19:29:44.240Z,15.25
2022-10-18T19:32:13.743Z,15.51
2022-10-18T19:34:42.896Z,15.48
2022-10-18T19:37:16.372Z,15.56
2022-10-18T19:39:47.530Z,15.34
2022-10-18T19:42:19.219Z,15.73
2022-10-18T19:44:52.587Z,15.73
2022-10-18T19:47:21.369Z,15.80
2022-10-18T19:49:49.457Z,15.82
2022-10-18T19:52:20.290Z,15.48
2022-10-18T19:54:51.528Z,16.14
2022-10-18T19:57:19.593Z,16.14
2022-10-18T19:59:47.611Z,16.18
2022-10-18T20:02:16.036Z,16.07
2022-10-18T20:04:43.979Z,16.04
2022-10-18T20:07:12.055Z,15.98
2022-10-18T20:09:40.451Z,15.83
2022-10-18T20:12:08.631Z,15.07
2022-10-18T20:14:38.345Z,14.58
2022-10-18T20:20:23.528Z,13.67
2022-10-18T20:22:56.690Z,13.25
2022-10-18T20:25:25.488Z,13.33
2022-10-18T20:27:53.466Z,13.15
2022-10-18T20:30:21.585Z,13.00
2022-10-18T20:32:53.286Z,12.58
2022-10-18T20:35:21.617Z,12.83
2022-10-18T20:37:49.734Z,12.75
2022-10-18T20:40:17.873Z,12.59
2022-10-18T20:42:45.883Z,12.58
2022-10-18T20:45:13.874Z,12.62
2022-10-18T20:47:42.801Z,12.67
2022-10-18T20:50:10.919Z,12.70
2022-10-18T20:52:39.051Z,12.73
2022-10-18T20:55:07.633Z,12.76
2022-10-18T20:57:36.619Z,12.74
2022-10-18T21:00:05.836Z,12.72
2022-10-18T21:02:43.129Z,12.35
2022-10-18T21:05:12.162Z,12.61
2022-10-18T21:07:40.269Z,12.82
2022-10-18T21:10:08.946Z,12.82
2022-10-18T21:12:37.371Z,12.60
2022-10-18T21:15:06.915Z,12.87
2022-10-18T21:17:35.121Z,12.64
2022-10-18T21:20:03.749Z,12.85
2022-10-18T21:22:31.828Z,12.85
2022-10-18T21:25:00.121Z,12.82
2022-10-18T21:27:28.226Z,12.55
2022-10-18T21:29:56.168Z,12.74
2022-10-18T21:32:24.234Z,12.78
2022-10-18T21:34:52.373Z,12.77
2022-10-18T21:37:20.923Z,12.74
2022-10-18T21:39:49.331Z,12.26
2022-10-18T21:42:17.390Z,12.64
2022-10-18T21:44:45.688Z,12.22
2022-10-18T21:47:13.899Z,12.60
2022-10-18T21:49:42.579Z,12.58
2022-10-18T21:52:10.509Z,12.27
2022-10-18T21:54:38.448Z,12.08
2022-10-18T21:57:06.390Z,12.33
2022-10-18T21:59:34.513Z,12.07
2022-10-18T22:02:03.132Z,12.12
2022-10-18T22:04:35.866Z,12.23
2022-10-18T22:07:05.104Z,12.17
2022-10-18T22:09:33.513Z,12.16
2022-10-18T22:12:01.454Z,12.16
2022-10-18T22:14:29.527Z,11.90
2022-10-18T22:16:57.523Z,12.08
2022-10-18T22:19:25.851Z,11.99
2022-10-18T22:21:54.090Z,11.99
2022-10-18T22:24:22.756Z,11.93
2022-10-18T22:26:51.249Z,11.87
2022-10-18T22:29:21.789Z,11.69
2022-10-18T22:31:52.707Z,11.92
2022-10-18T22:34:29.720Z,11.92
2022-10-18T22:36:58.336Z,11.92
2022-10-18T22:39:26.425Z,11.61
2022-10-18T22:41:56.865Z,11.93
2022-10-18T22:44:25.579Z,11.91
2022-10-18T22:46:53.431Z,11.88
2022-10-18T22:49:21.670Z,11.88
2022-10-18T22:51:50.065Z,11.54
2022-10-18T22:54:18.355Z,11.90
2022-10-18T22:56:46.502Z,11.92
2022-10-18T22:59:15.147Z,11.94
2022-10-18T23:01:42.960Z,11.94
2022-10-18T23:04:12.130Z,11.93
2022-10-18T23:06:40.515Z,11.68
2022-10-18T23:09:10.893Z,11.91
2022-10-18T23:11:39.117Z,11.90
2022-10-18T23:14:07.692Z,11.77
2022-10-18T23:16:35.916Z,11.90
2022-10-18T23:19:04.142Z,11.87
2022-10-18T23:21:33.663Z,11.73
2022-10-18T23:24:01.562Z,11.78
2022-10-18T23:26:29.785Z,11.91
2022-10-18T23:28:58.042Z,11.78
2022-10-18T23:31:30.074Z,12.01
2022-10-18T23:34:02.194Z,11.99
2022-10-18T23:36:32.525Z,11.99
2022-10-18T23:39:00.751Z,12.03
2022-10-18T23:41:29.092Z,12.06
2022-10-18T23:43:57.072Z,12.04
2022-10-18T23:46:25.442Z,12.04
2022-10-18T23:48:53.505Z,11.77
2022-10-18T23:51:21.384Z,12.01
2022-10-18T23:53:50.829Z,11.99
2022-10-18T23:56:18.898Z,11.67
2022-10-18T23:58:46.970Z,11.85
